createdAt,value
2022-10-17T00:01:56.896Z,78.47
2022-10-17T00:04:59.871Z,78.53
2022-10-17T00:08:02.305Z,78.52
2022-10-17T00:11:08.836Z,78.71
2022-10-17T00:14:11.354Z,78.73
2022-10-17T00:17:15.491Z,78.92
2022-10-17T00:20:18.375Z,78.84
2022-10-17T00:23:21.211Z,78.96
2022-10-17T00:26:25.108Z,79.04
2022-10-17T00:29:28.549Z,79.17
2022-10-17T00:32:31.829Z,79.02
2022-10-17T00:35:34.645Z,78.99
2022-10-17T00:38:37.599Z,78.96
2022-10-17T00:41:40.373Z,78.96
2022-10-17T00:45:03.039Z,79.15
2022-10-17T00:48:08.575Z,79.22
2022-10-17T00:51:11.216Z,79.24
2022-10-17T00:54:17.746Z,79.26
2022-10-17T00:57:20.703Z,79.52
2022-10-17T01:00:24.098Z,79.45
2022-10-17T01:03:26.576Z,79.57
2022-10-17T01:06:29.460Z,79.55
2022-10-17T01:09:31.995Z,79.54
2022-10-17T01:13:11.846Z,79.63
2022-10-17T01:16:22.577Z,79.64
2022-10-17T01:19:50.687Z,79.61
2022-10-17T01:23:08.342Z,79.61
2022-10-17T01:26:13.705Z,79.63
2022-10-17T01:29:28.310Z,79.57
2022-10-17T01:32:46.838Z,79.53
2022-10-17T01:36:04.893Z,79.40
2022-10-17T01:39:13.562Z,79.53
2022-10-17T01:42:21.863Z,79.72
2022-10-17T01:45:33.898Z,79.81
2022-10-17T01:48:38.198Z,79.95
2022-10-17T01:51:45.214Z,79.92
2022-10-17T01:54:52.144Z,79.95
2022-10-17T01:57:59.420Z,79.90
2022-10-17T02:01:05.594Z,80.11
2022-10-17T02:04:09.875Z,80.24
2022-10-17T02:07:13.501Z,80.20
2022-10-17T02:10:26.018Z,79.97
2022-10-17T02:13:45.114Z,79.90
2022-10-17T02:17:14.521Z,79.93
2022-10-17T02:20:37.374Z,79.76
2022-10-17T02:23:56.678Z,79.76
2022-10-17T02:27:08.636Z,79.88
2022-10-17T02:30:26.420Z,80.16
2022-10-17T02:33:44.360Z,80.21
2022-10-17T02:36:51.950Z,80.30
2022-10-17T02:39:56.816Z,80.34
2022-10-17T02:43:00.963Z,80.52
2022-10-17T02:46:05.096Z,80.49
2022-10-17T02:49:18.843Z,80.55
2022-10-17T02:52:58.564Z,80.56
2022-10-17T02:56:05.004Z,80.53
2022-10-17T02:59:09.598Z,80.57
2022-10-17T03:02:12.055Z,80.37
2022-10-17T03:05:21.322Z,80.52
2022-10-17T03:08:24.486Z,80.67
2022-10-17T03:11:27.657Z,80.81
2022-10-17T03:14:30.254Z,80.94
2022-10-17T03:17:33.324Z,80.89
2022-10-17T03:20:36.045Z,81.09
2022-10-17T03:23:38.860Z,81.20
2022-10-17T03:26:41.519Z,81.29
2022-10-17T03:29:44.340Z,81.48
2022-10-17T03:32:48.761Z,81.45
2022-10-17T03:35:51.795Z,81.39
2022-10-17T03:38:54.966Z,81.46
2022-10-17T03:41:58.026Z,81.35
2022-10-17T03:45:01.021Z,81.20
2022-10-17T03:48:04.125Z,81.23
2022-10-17T03:51:08.750Z,81.13
2022-10-17T03:54:13.361Z,81.18
2022-10-17T03:57:15.918Z,81.19
2022-10-17T04:00:19.707Z,81.20
2022-10-17T04:03:25.406Z,81.00
2022-10-17T04:06:27.962Z,81.10
2022-10-17T04:09:30.868Z,81.13
2022-10-17T04:12:33.777Z,81.32
2022-10-17T04:15:36.632Z,81.13
2022-10-17T04:18:40.245Z,81.18
2022-10-17T04:21:43.054Z,81.17
2022-10-17T04:24:45.598Z,81.13
2022-10-17T04:27:49.349Z,81.08
2022-10-17T04:31:08.065Z,81.12
2022-10-17T04:34:14.120Z,81.07
2022-10-17T04:37:17.037Z,81.00
2022-10-17T04:40:20.979Z,81.19
2022-10-17T04:43:24.050Z,81.18
2022-10-17T04:46:27.474Z,81.42
2022-10-17T04:49:32.820Z,81.39
2022-10-17T04:52:39.216Z,81.34
2022-10-17T04:55:47.391Z,81.54
2022-10-17T04:58:52.127Z,81.54
2022-10-17T05:01:55.168Z,81.51
2022-10-17T05:04:58.505Z,81.63
2022-10-17T05:08:01.049Z,81.58
2022-10-17T05:11:05.925Z,81.54
2022-10-17T05:14:08.488Z,81.56
2022-10-17T05:17:11.350Z,81.60
2022-10-17T05:20:14.337Z,81.63
2022-10-17T05:23:17.295Z,81.72
2022-10-17T05:26:20.559Z,81.81
2022-10-17T05:29:26.441Z,81.82
2022-10-17T05:32:36.788Z,82.00
2022-10-17T05:35:39.681Z,82.21
2022-10-17T05:38:42.271Z,82.06
2022-10-17T05:41:46.719Z,82.20
2022-10-17T05:44:49.416Z,82.14
2022-10-17T05:47:52.723Z,82.23
2022-10-17T05:51:04.941Z,82.26
2022-10-17T05:54:08.452Z,82.42
2022-10-17T05:57:11.421Z,82.78
2022-10-17T06:00:14.881Z,83.27
2022-10-17T06:03:17.294Z,83.58
2022-10-17T06:06:20.420Z,84.14
2022-10-17T06:09:23.992Z,84.36
2022-10-17T06:12:27.743Z,84.42
2022-10-17T06:15:30.606Z,84.48
2022-10-17T06:18:34.056Z,84.50
2022-10-17T06:21:38.673Z,85.01
2022-10-17T06:24:42.539Z,85.05
2022-10-17T06:27:45.233Z,84.76
2022-10-17T06:30:48.364Z,84.44
2022-10-17T06:33:50.958Z,84.49
2022-10-17T06:36:54.027Z,84.96
2022-10-17T06:39:56.641Z,84.85
2022-10-17T06:43:00.961Z,85.02
2022-10-17T06:46:07.618Z,85.85
2022-10-17T06:49:11.644Z,85.95
2022-10-17T06:52:15.039Z,85.45
2022-10-17T06:55:21.480Z,85.74
2022-10-17T06:58:25.785Z,85.41
2022-10-17T07:01:31.095Z,85.55
2022-10-17T07:04:34.182Z,85.57
2022-10-17T07:07:40.127Z,84.54
2022-10-17T07:10:46.562Z,81.26
2022-10-17T07:13:49.554Z,80.40
2022-10-17T07:16:52.153Z,79.83
2022-10-17T07:19:55.205Z,79.39
2022-10-17T07:22:58.079Z,78.95
2022-10-17T07:26:08.983Z,78.08
2022-10-17T07:29:13.047Z,77.64
2022-10-17T07:32:16.183Z,76.56
2022-10-17T07:35:18.666Z,75.16
2022-10-17T07:38:21.605Z,75.19
2022-10-17T07:41:24.143Z,74.63
2022-10-17T07:44:27.256Z,73.41
2022-10-17T07:47:31.536Z,72.40
2022-10-17T07:50:35.172Z,71.64
2022-10-17T07:53:38.957Z,71.01
2022-10-17T07:56:41.943Z,70.61
2022-10-17T07:59:44.481Z,70.08
2022-10-17T08:02:47.364Z,68.38
2022-10-17T08:05:50.210Z,69.31
2022-10-17T08:08:53.065Z,68.79
2022-10-17T08:11:56.502Z,68.23
2022-10-17T08:14:59.519Z,66.77
2022-10-17T08:18:02.463Z,65.96
2022-10-17T08:21:08.842Z,65.74
2022-10-17T08:24:11.652Z,65.05
2022-10-17T08:27:14.469Z,64.65
2022-10-17T08:30:18.051Z,64.27
2022-10-17T08:33:20.594Z,62.48
2022-10-17T08:36:23.475Z,63.74
2022-10-17T08:39:26.562Z,62.00
2022-10-17T08:43:07.179Z,61.42
2022-10-17T08:46:09.904Z,60.62
2022-10-17T08:49:47.780Z,61.32
2022-10-17T08:52:57.926Z,58.76
2022-10-17T08:56:07.220Z,59.40
2022-10-17T08:59:18.899Z,59.76
2022-10-17T09:02:40.222Z,59.00
2022-10-17T09:06:18.979Z,59.83
2022-10-17T09:09:24.929Z,58.29
2022-10-17T09:12:39.285Z,58.12
2022-10-17T09:15:52.269Z,57.87
2022-10-17T09:19:28.863Z,57.62
2022-10-17T09:22:39.096Z,55.21
2022-10-17T09:25:46.975Z,55.81
2022-10-17T09:28:55.078Z,55.22
2022-10-17T09:32:05.634Z,52.39
2022-10-17T09:35:13.958Z,52.53
2022-10-17T09:38:21.442Z,51.06
2022-10-17T09:41:48.820Z,51.46
2022-10-17T09:44:57.696Z,51.40
2022-10-17T09:48:27.860Z,51.09
2022-10-17T09:51:31.321Z,50.25
2022-10-17T09:54:41.947Z,49.49
2022-10-17T09:57:59.003Z,49.52
2022-10-17T10:01:25.053Z,48.96
2022-10-17T10:04:30.352Z,49.31
2022-10-17T10:07:38.583Z,47.50
2022-10-17T10:10:44.813Z,48.55
2022-10-17T10:13:48.529Z,48.21
2022-10-17T10:16:53.791Z,48.00
2022-10-17T10:19:56.594Z,48.23
2022-10-17T10:23:21.355Z,47.56
2022-10-17T10:26:26.693Z,47.57
2022-10-17T10:29:41.740Z,47.13
2022-10-17T10:32:46.363Z,46.58
2022-10-17T10:35:55.839Z,47.64
2022-10-17T10:39:01.299Z,47.59
2022-10-17T10:42:18.162Z,47.64
2022-10-17T10:45:46.491Z,46.59
2022-10-17T10:48:59.750Z,46.76
2022-10-17T10:52:03.350Z,46.72
2022-10-17T10:55:16.046Z,47.57
2022-10-17T10:58:41.767Z,47.84
2022-10-17T11:02:02.254Z,48.00
2022-10-17T11:05:11.167Z,48.20
2022-10-17T11:08:35.043Z,46.01
2022-10-17T11:11:59.439Z,47.58
2022-10-17T11:15:14.357Z,46.46
2022-10-17T11:18:28.460Z,47.31
2022-10-17T11:21:44.083Z,47.33
2022-10-17T11:24:59.642Z,46.99
2022-10-17T11:28:14.496Z,47.36
2022-10-17T11:31:17.944Z,48.02
2022-10-17T11:34:29.621Z,47.71
2022-10-17T11:37:36.674Z,47.17
2022-10-17T11:40:45.225Z,48.29
2022-10-17T11:43:55.147Z,47.86
2022-10-17T11:47:01.952Z,47.47
2022-10-17T11:53:58.930Z,46.79
2022-10-17T11:57:13.969Z,47.19
2022-10-17T12:00:39.207Z,47.47
2022-10-17T12:04:05.913Z,46.75
2022-10-17T12:07:28.980Z,46.82
2022-10-17T12:10:51.852Z,47.11
2022-10-17T12:13:56.445Z,47.54
2022-10-17T12:17:00.018Z,47.74
2022-10-17T12:20:21.552Z,45.50
2022-10-17T12:23:29.326Z,43.43
2022-10-17T12:26:31.858Z,42.99
2022-10-17T12:29:34.883Z,42.75
2022-10-17T12:32:53.408Z,40.84
2022-10-17T12:36:18.769Z,40.90
2022-10-17T12:39:27.808Z,41.05
2022-10-17T12:42:32.812Z,40.86
2022-10-17T12:45:52.905Z,41.68
2022-10-17T12:49:01.192Z,40.04
2022-10-17T12:52:15.886Z,39.49
2022-10-17T12:55:19.408Z,40.42
2022-10-17T12:58:21.982Z,40.37
2022-10-17T13:01:31.406Z,40.00
2022-10-17T13:04:36.481Z,40.33
2022-10-17T13:07:41.546Z,39.83
2022-10-17T13:10:49.095Z,39.20
2022-10-17T13:13:57.722Z,39.69
2022-10-17T13:17:07.177Z,39.50
2022-10-17T13:20:25.554Z,38.54
2022-10-17T13:23:36.917Z,39.96
2022-10-17T13:26:45.469Z,39.79
2022-10-17T13:29:48.154Z,39.29
2022-10-17T13:32:51.382Z,39.32
2022-10-17T13:36:00.322Z,39.09
2022-10-17T13:39:12.489Z,39.83
2022-10-17T13:42:39.750Z,39.78
2022-10-17T13:45:48.960Z,40.02
2022-10-17T13:48:51.677Z,40.12
2022-10-17T13:51:55.102Z,40.29
2022-10-17T13:55:16.569Z,40.36
2022-10-17T13:58:20.334Z,40.53
2022-10-17T14:01:24.666Z,40.97
2022-10-17T14:04:28.349Z,41.22
2022-10-17T14:08:09.540Z,40.66
2022-10-17T14:11:25.427Z,41.02
2022-10-17T14:14:28.410Z,41.06
2022-10-17T14:17:31.657Z,41.10
2022-10-17T14:24:15.803Z,41.56
2022-10-17T14:27:52.156Z,41.65
2022-10-17T14:31:22.931Z,41.87
2022-10-17T14:34:33.760Z,42.42
2022-10-17T14:37:43.832Z,42.80
2022-10-17T14:40:51.478Z,42.13
2022-10-17T14:43:59.867Z,42.17
2022-10-17T14:47:30.919Z,43.25
2022-10-17T14:50:32.619Z,43.35
2022-10-17T14:53:35.867Z,43.04
2022-10-17T14:56:42.727Z,43.81
2022-10-17T14:59:54.620Z,43.97
2022-10-17T15:02:58.146Z,44.47
2022-10-17T15:06:19.493Z,44.28
2022-10-17T15:09:23.693Z,44.84
2022-10-17T15:12:26.734Z,45.50
2022-10-17T15:15:30.530Z,46.46
2022-10-17T15:18:34.095Z,47.11
2022-10-17T15:21:40.765Z,47.08
2022-10-17T15:24:46.573Z,46.72
2022-10-17T15:27:49.508Z,47.72
2022-10-17T15:30:52.275Z,47.85
2022-10-17T15:33:55.307Z,48.45
2022-10-17T15:36:58.775Z,49.44
2022-10-17T15:40:05.359Z,49.93
2022-10-17T15:43:09.497Z,50.84
2022-10-17T15:46:14.786Z,51.55
2022-10-17T15:49:19.824Z,51.43
2022-10-17T15:52:24.071Z,51.90
2022-10-17T15:55:26.953Z,52.21
2022-10-17T15:58:36.499Z,52.66
2022-10-17T16:01:39.468Z,53.07
2022-10-17T16:04:42.938Z,54.18
2022-10-17T16:07:46.761Z,54.36
2022-10-17T16:10:50.089Z,54.96
2022-10-17T16:13:54.330Z,55.07
2022-10-17T16:16:57.171Z,56.21
2022-10-17T16:20:04.003Z,56.31
2022-10-17T16:23:08.427Z,56.57
2022-10-17T16:26:14.063Z,56.95
2022-10-17T16:29:17.232Z,57.13
2022-10-17T16:32:19.791Z,57.84
2022-10-17T16:35:33.154Z,58.34
2022-10-17T16:38:39.975Z,58.60
2022-10-17T16:41:42.798Z,58.81
2022-10-17T16:44:45.323Z,59.08
2022-10-17T16:47:49.240Z,59.51
2022-10-17T16:50:51.788Z,59.77
2022-10-17T16:53:56.430Z,60.15
2022-10-17T16:56:59.167Z,60.71
2022-10-17T17:00:02.229Z,60.69
2022-10-17T17:03:04.997Z,61.26
2022-10-17T17:06:09.298Z,61.40
2022-10-17T17:09:11.975Z,61.79
2022-10-17T17:12:14.844Z,61.84
2022-10-17T17:15:17.417Z,62.07
2022-10-17T17:18:21.033Z,62.05
2022-10-17T17:21:23.851Z,62.64
2022-10-17T17:24:26.751Z,62.63
2022-10-17T17:27:29.671Z,62.73
2022-10-17T17:30:34.686Z,62.91
2022-10-17T17:33:39.110Z,63.00
2022-10-17T17:36:42.178Z,63.12
2022-10-17T17:39:44.800Z,63.51
2022-10-17T17:42:47.696Z,63.82
2022-10-17T17:45:50.584Z,64.05
2022-10-17T17:48:55.008Z,64.45
2022-10-17T17:51:57.639Z,64.41
2022-10-17T17:55:00.529Z,64.95
2022-10-17T17:58:03.806Z,64.80
2022-10-17T18:01:12.319Z,65.09
2022-10-17T18:04:17.239Z,65.45
2022-10-17T18:07:19.684Z,65.45
2022-10-17T18:10:23.025Z,65.83
2022-10-17T18:13:25.651Z,65.98
2022-10-17T18:16:30.213Z,66.30
2022-10-17T18:19:32.785Z,66.57
2022-10-17T18:22:35.835Z,66.83
2022-10-17T18:25:39.688Z,66.92
2022-10-17T18:28:43.488Z,67.40
2022-10-17T18:31:46.076Z,67.51
2022-10-17T18:34:51.140Z,67.69
2022-10-17T18:37:56.724Z,67.96
2022-10-17T18:41:14.201Z,68.33
2022-10-17T18:44:16.909Z,68.31
2022-10-17T18:47:19.682Z,68.72
2022-10-17T18:50:24.367Z,68.64
2022-10-17T18:53:28.272Z,69.40
2022-10-17T18:56:31.851Z,69.17
2022-10-17T18:59:34.936Z,69.65
2022-10-17T19:02:38.074Z,69.76
2022-10-17T19:05:41.884Z,69.73
2022-10-17T19:08:45.468Z,69.92
2022-10-17T19:11:48.293Z,70.20
2022-10-17T19:14:51.008Z,70.34
2022-10-17T19:17:53.832Z,70.55
2022-10-17T19:21:01.767Z,70.91
2022-10-17T19:24:07.191Z,70.87
2022-10-17T19:27:10.605Z,70.92
2022-10-17T19:30:13.359Z,71.33
2022-10-17T19:33:15.926Z,71.43
2022-10-17T19:36:20.601Z,71.60
2022-10-17T19:39:23.943Z,71.84
2022-10-17T19:42:26.700Z,71.84
2022-10-17T19:45:29.227Z,71.90
2022-10-17T19:48:34.310Z,72.05
2022-10-17T19:51:37.216Z,72.11
2022-10-17T19:54:40.754Z,72.25
2022-10-17T19:57:43.297Z,72.35
2022-10-17T20:00:51.341Z,72.50
2022-10-17T20:03:54.857Z,72.73
2022-10-17T20:06:59.942Z,72.69
2022-10-17T20:10:03.063Z,72.77
2022-10-17T20:13:05.842Z,72.89
2022-10-17T20:16:13.572Z,73.12
2022-10-17T20:19:16.378Z,73.26
2022-10-17T20:22:19.212Z,73.34
2022-10-17T20:25:22.025Z,73.43
2022-10-17T20:28:24.899Z,73.35
2022-10-17T20:31:27.642Z,73.45
2022-10-17T20:34:34.793Z,73.61
2022-10-17T20:37:41.699Z,73.57
2022-10-17T20:40:46.171Z,73.76
2022-10-17T20:43:51.379Z,74.10
2022-10-17T20:47:01.738Z,74.12
2022-10-17T20:50:05.093Z,74.49
2022-10-17T20:53:34.860Z,74.47
2022-10-17T20:56:33.098Z,74.47
2022-10-17T20:59:36.150Z,74.60
2022-10-17T21:02:38.680Z,74.61
2022-10-17T21:05:41.532Z,74.46
2022-10-17T21:08:44.909Z,74.61
2022-10-17T21:11:51.220Z,74.75
2022-10-17T21:14:53.976Z,74.69
2022-10-17T21:17:56.752Z,74.80
2022-10-17T21:21:33.812Z,75.00
2022-10-17T21:24:36.589Z,75.11
2022-10-17T21:27:39.064Z,75.16
2022-10-17T21:30:41.893Z,75.26
2022-10-17T21:33:46.678Z,75.35
2022-10-17T21:36:49.453Z,75.37
2022-10-17T21:39:52.046Z,75.39
2022-10-17T21:42:54.918Z,75.51
2022-10-17T21:46:01.735Z,75.45
2022-10-17T21:49:04.845Z,75.24
2022-10-17T21:52:07.349Z,75.26
2022-10-17T21:55:12.842Z,75.52
2022-10-17T21:58:15.372Z,75.53
2022-10-17T22:01:23.114Z,75.30
2022-10-17T22:04:26.088Z,75.53
2022-10-17T22:07:28.608Z,75.79
2022-10-17T22:10:37.116Z,75.69
2022-10-17T22:13:39.909Z,75.67
2022-10-17T22:16:45.010Z,75.89
2022-10-17T22:19:47.572Z,76.00
2022-10-17T22:22:54.520Z,76.19
2022-10-17T22:25:58.344Z,76.19
2022-10-17T22:29:01.299Z,76.19
2022-10-17T22:32:03.849Z,76.58
2022-10-17T22:35:07.212Z,76.92
2022-10-17T22:38:09.766Z,76.75
2022-10-17T22:41:12.502Z,77.41
2022-10-17T22:44:14.991Z,77.53
2022-10-17T22:47:17.715Z,77.69
2022-10-17T22:50:21.421Z,77.59
2022-10-17T22:53:26.365Z,77.92
2022-10-17T22:56:28.808Z,77.87
2022-10-17T22:59:31.579Z,78.00
2022-10-17T23:02:34.540Z,78.32
2022-10-17T23:05:37.346Z,78.25
2022-10-17T23:08:40.074Z,78.26
2022-10-17T23:11:42.878Z,78.36
2022-10-17T23:14:45.482Z,78.98
2022-10-17T23:17:48.297Z,78.57
2022-10-17T23:20:51.277Z,78.47
2022-10-17T23:23:54.158Z,78.34
2022-10-17T23:26:57.049Z,78.36
2022-10-17T23:29:59.924Z,78.83
2022-10-17T23:33:02.846Z,79.06
2022-10-17T23:36:06.065Z,79.05
2022-10-17T23:39:09.366Z,78.90
2022-10-17T23:42:12.201Z,78.82
2022-10-17T23:45:14.810Z,78.54
2022-10-17T23:48:17.600Z,78.70
2022-10-17T23:51:20.635Z,78.73
2022-10-17T23:54:23.443Z,78.68
2022-10-17T23:57:25.972Z,78.78
